Time;durP1;ratioP1;P1;durP2;ratioP2;P2;SDS_P1;SDS_P2;PMS_P1;PMS_P2;Temp;Humidity;BMP_temperature;BMP_pressure;BME280_temperature;BME280_humidity;BME280_pressure;Samples;Min_cycle;Max_cycle;Signal;HPM_P1;HPM_P2
2023/01/30 00:01:00;;;;;;;16.10;9.93;;;8.30;83.40;;;;;;6258393;22;20012;-79
2023/01/30 00:03:25;;;;;;;15.63;9.93;;;8.30;83.40;;;;;;6260022;23;20039;-79
2023/01/30 00:05:52;;;;;;;14.07;9.23;;;8.30;83.40;;;;;;6257521;23;20343;-81
2023/01/30 00:08:18;;;;;;;14.20;9.38;;;8.40;83.40;;;;;;6258327;23;20004;-79
2023/01/30 00:10:44;;;;;;;14.40;10.10;;;8.40;83.40;;;;;;6258313;22;20020;-81
2023/01/30 00:13:11;;;;;;;15.20;10.25;;;8.40;83.40;;;;;;6257701;23;20027;-80
2023/01/30 00:15:36;;;;;;;14.32;9.48;;;8.40;83.50;;;;;;6256920;23;20012;-79
2023/01/30 00:18:02;;;;;;;13.45;8.95;;;8.40;83.40;;;;;;6255988;23;20065;-80
2023/01/30 00:20:28;;;;;;;14.88;9.65;;;8.30;83.50;;;;;;6256756;22;20439;-79
2023/01/30 00:22:54;;;;;;;13.95;9.15;;;8.40;83.50;;;;;;6256423;23;20122;-81
2023/01/30 00:25:19;;;;;;;14.30;9.68;;;8.30;83.40;;;;;;6256627;23;20004;-80
2023/01/30 00:27:45;;;;;;;15.43;9.93;;;8.40;83.50;;;;;;6263594;23;20024;-82
2023/01/30 00:30:11;;;;;;;14.50;9.82;;;8.30;83.30;;;;;;6257940;22;20065;-79
2023/01/30 00:32:36;;;;;;;14.65;10.13;;;8.30;83.50;;;;;;6254660;23;20434;-79
2023/01/30 00:35:02;;;;;;;15.23;10.45;;;8.30;83.40;;;;;;6254372;23;20438;-81
2023/01/30 00:37:27;;;;;;;15.30;10.38;;;8.30;83.40;;;;;;6254151;23;20004;-79
2023/01/30 00:39:52;;;;;;;14.98;10.25;;;8.30;83.40;;;;;;6252724;23;20091;-80
2023/01/30 00:47:50;;;;;;;14.85;9.82;;;8.40;83.50;;;;;;6256279;23;20039;-79
2023/01/30 00:50:15;;;;;;;14.00;9.10;;;8.40;83.50;;;;;;6253494;22;20051;-79
2023/01/30 00:52:41;;;;;;;13.55;9.40;;;8.40;83.50;;;;;;6252366;23;20004;-83
2023/01/30 00:55:07;;;;;;;12.52;8.60;;;8.30;83.40;;;;;;6252824;23;20028;-79
2023/01/30 00:57:32;;;;;;;15.63;10.00;;;8.40;83.60;;;;;;6253316;23;20004;-79
2023/01/30 00:59:58;;;;;;;14.20;9.43;;;8.30;83.60;;;;;;6252025;23;20026;-79
2023/01/30 01:02:23;;;;;;;14.55;9.70;;;8.40;83.50;;;;;;6251192;22;20343;-79
2023/01/30 01:04:49;;;;;;;14.68;9.57;;;8.30;83.50;;;;;;6251505;23;20031;-79
2023/01/30 01:07:14;;;;;;;14.05;9.00;;;8.40;83.60;;;;;;6251870;23;20007;-79
2023/01/30 01:09:40;;;;;;;13.93;9.85;;;8.30;83.50;;;;;;6252350;23;20514;-78
2023/01/30 01:12:06;;;;;;;13.50;9.15;;;8.30;83.40;;;;;;6249156;22;20454;-76
2023/01/30 01:14:32;;;;;;;13.43;9.50;;;8.30;83.50;;;;;;6243719;23;20442;-77
2023/01/30 01:16:58;;;;;;;14.30;9.13;;;8.40;83.60;;;;;;6249588;23;20087;-79
2023/01/30 01:19:23;;;;;;;13.85;9.55;;;8.30;83.50;;;;;;6252632;23;20007;-79
2023/01/30 01:21:49;;;;;;;13.68;9.00;;;8.30;83.50;;;;;;6250218;22;20008;-79
2023/01/30 01:24:15;;;;;;;13.90;8.95;;;8.30;83.60;;;;;;6248819;23;20000;-81
2023/01/30 01:26:41;;;;;;;13.85;9.35;;;8.40;83.50;;;;;;6249231;23;20004;-84
2023/01/30 01:29:14;;;;;;;13.35;9.05;;;8.30;83.50;;;;;;6249234;23;20008;-81
2023/01/30 01:31:40;;;;;;;13.88;9.10;;;8.30;83.50;;;;;;6252161;22;20092;-80
2023/01/30 01:34:06;;;;;;;14.20;9.52;;;8.30;83.50;;;;;;6250745;23;20004;-78
2023/01/30 01:36:31;;;;;;;14.93;10.00;;;8.30;83.70;;;;;;6249763;23;20316;-79
2023/01/30 01:38:57;;;;;;;14.07;8.68;;;8.30;83.60;;;;;;6249294;23;20018;-79
2023/01/30 01:41:22;;;;;;;13.85;9.75;;;8.30;84.20;;;;;;6250905;22;20431;-79
2023/01/30 01:44:08;;;;;;;13.80;9.05;;;8.30;83.70;;;;;;6252813;23;20036;-81
2023/01/30 01:46:57;;;;;;;14.23;9.32;;;8.30;83.60;;;;;;6250410;23;20005;-80
2023/01/30 01:49:31;;;;;;;15.00;9.43;;;8.30;83.50;;;;;;6250393;23;20060;-81
2023/01/30 01:52:04;;;;;;;13.13;9.13;;;8.40;83.70;;;;;;6248467;22;20407;-78
2023/01/30 01:54:44;;;;;;;14.55;9.00;;;8.40;83.80;;;;;;6249050;23;20004;-80
2023/01/30 01:57:17;;;;;;;13.05;8.57;;;8.40;83.70;;;;;;6257201;23;20008;-80
2023/01/30 01:59:51;;;;;;;13.57;9.32;;;8.30;83.50;;;;;;6256742;22;20011;-84
2023/01/30 02:02:18;;;;;;;13.90;9.27;;;8.40;83.70;;;;;;6251838;22;20004;-84
2023/01/30 02:05:01;;;;;;;14.93;9.43;;;8.30;83.60;;;;;;6249017;23;20008;-81
2023/01/30 02:07:30;;;;;;;13.50;9.05;;;8.40;83.80;;;;;;6249778;23;20004;-81
2023/01/30 02:09:56;;;;;;;14.20;9.45;;;8.30;83.80;;;;;;6249945;23;20031;-76
2023/01/30 02:12:22;;;;;;;13.95;8.80;;;8.30;83.80;;;;;;6246981;22;20019;-80
2023/01/30 02:14:48;;;;;;;13.55;8.95;;;8.30;83.80;;;;;;6251817;23;20338;-83
2023/01/30 02:17:14;;;;;;;13.90;9.38;;;8.30;83.70;;;;;;6250068;23;20000;-79
2023/01/30 02:19:48;;;;;;;14.35;9.23;;;8.30;83.70;;;;;;6263617;23;20014;-82
2023/01/30 02:22:19;;;;;;;13.73;8.98;;;8.30;83.70;;;;;;6263125;22;20060;-81
2023/01/30 02:25:14;;;;;;;15.85;9.75;;;8.30;83.80;;;;;;6261814;23;20003;-81
2023/01/30 02:28:02;;;;;;;13.90;9.20;;;8.30;83.70;;;;;;6263087;23;20004;-82
2023/01/30 02:30:46;;;;;;;14.60;9.43;;;8.30;83.70;;;;;;6262224;22;20004;-80
2023/01/30 02:33:40;;;;;;;13.73;9.23;;;8.30;83.70;;;;;;6259724;23;20068;-81
2023/01/30 02:36:37;;;;;;;13.63;8.85;;;8.30;83.60;;;;;;6260096;23;20091;-80
2023/01/30 02:39:30;;;;;;;13.32;9.05;;;8.30;83.70;;;;;;6259982;23;20008;-78
2023/01/30 02:42:46;;;;;;;14.82;9.38;;;8.30;83.70;;;;;;6260316;22;20056;-81
2023/01/30 02:45:17;;;;;;;14.52;9.48;;;8.40;83.90;;;;;;6169859;23;20012;-80
2023/01/30 02:47:59;;;;;;;14.68;9.63;;;8.30;83.70;;;;;;6170834;23;20475;-80
2023/01/30 02:50:56;;;;;;;13.68;9.38;;;8.30;83.70;;;;;;6229795;22;20020;-81
2023/01/30 02:53:22;;;;;;;14.05;9.10;;;8.30;83.90;;;;;;6238077;23;20470;-80
2023/01/30 02:55:47;;;;;;;14.32;9.48;;;8.40;83.80;;;;;;6256942;23;20000;-80
2023/01/30 02:58:15;;;;;;;13.85;9.32;;;8.30;83.70;;;;;;6259066;23;20453;-82
2023/01/30 03:01:02;;;;;;;14.15;9.48;;;8.30;83.80;;;;;;6258837;22;20091;-80
2023/01/30 03:03:42;;;;;;;13.35;8.70;;;8.30;83.90;;;;;;6256008;23;20018;-80
2023/01/30 03:06:16;;;;;;;14.63;9.60;;;8.30;83.70;;;;;;6254653;23;20007;-81
2023/01/30 03:08:54;;;;;;;13.32;8.77;;;8.30;83.90;;;;;;6262828;23;20035;-82
2023/01/30 03:11:27;;;;;;;13.45;9.38;;;8.30;83.80;;;;;;6261686;22;20011;-80
2023/01/30 03:14:18;;;;;;;12.73;8.32;;;8.30;84.40;;;;;;6262225;23;20459;-81
2023/01/30 03:16:46;;;;;;;13.40;9.13;;;8.30;83.70;;;;;;6262597;22;20056;-82
2023/01/30 03:19:12;;;;;;;14.50;8.73;;;8.30;83.90;;;;;;6260630;23;20011;-81
2023/01/30 03:21:43;;;;;;;13.52;9.00;;;8.40;83.90;;;;;;6260988;22;20000;-81
2023/01/30 03:24:09;;;;;;;13.43;8.65;;;8.40;83.80;;;;;;6260587;23;20459;-81
2023/01/30 03:26:39;;;;;;;13.80;9.35;;;8.30;83.70;;;;;;6259358;23;20008;-79
2023/01/30 03:29:05;;;;;;;13.48;8.95;;;8.30;83.90;;;;;;6259327;23;20047;-82
2023/01/30 03:31:30;;;;;;;12.80;8.60;;;8.30;83.90;;;;;;6258348;22;20004;-79
2023/01/30 03:33:56;;;;;;;13.43;8.75;;;8.30;83.90;;;;;;6259245;23;20012;-80
2023/01/30 03:36:21;;;;;;;13.85;9.18;;;8.30;83.80;;;;;;6257425;23;20011;-78
2023/01/30 03:38:47;;;;;;;13.77;9.02;;;8.30;83.90;;;;;;6260831;23;19988;-82
2023/01/30 03:41:12;;;;;;;13.32;9.00;;;8.30;83.90;;;;;;6261252;22;20035;-82
2023/01/30 03:43:38;;;;;;;13.43;9.02;;;8.30;83.80;;;;;;6257416;23;20506;-81
2023/01/30 03:46:03;;;;;;;13.23;8.63;;;8.30;84.00;;;;;;6259556;22;20004;-82
2023/01/30 03:48:29;;;;;;;11.75;8.25;;;8.40;83.90;;;;;;6260537;23;20008;-80
2023/01/30 03:50:54;;;;;;;12.60;8.68;;;8.30;83.80;;;;;;6255620;22;20000;-79
2023/01/30 03:53:20;;;;;;;13.23;8.63;;;8.30;84.00;;;;;;6256195;23;20331;-81
2023/01/30 03:55:45;;;;;;;13.43;8.40;;;8.30;83.80;;;;;;6255047;23;20386;-79
2023/01/30 03:58:11;;;;;;;12.65;8.20;;;8.30;83.90;;;;;;6255011;23;20087;-79
2023/01/30 04:00:36;;;;;;;13.20;8.57;;;8.30;83.80;;;;;;6256864;22;20012;-80
2023/01/30 04:03:02;;;;;;;12.68;8.13;;;8.30;83.90;;;;;;6256343;23;20004;-79
2023/01/30 04:05:28;;;;;;;12.27;8.38;;;8.30;84.00;;;;;;6253140;23;20346;-83
2023/01/30 04:07:56;;;;;;;12.73;8.65;;;8.30;83.90;;;;;;6253898;23;20124;-79
2023/01/30 04:10:22;;;;;;;12.07;7.88;;;8.30;83.90;;;;;;6243282;22;20004;-79
2023/01/30 04:12:48;;;;;;;12.02;8.10;;;8.20;83.80;;;;;;6106246;23;19998;-81
2023/01/30 04:15:13;;;;;;;12.52;8.43;;;8.30;84.00;;;;;;6103783;23;20010;-81
2023/01/30 04:17:39;;;;;;;12.30;7.97;;;8.30;84.00;;;;;;6104807;23;20010;-79
2023/01/30 04:20:05;;;;;;;11.50;7.70;;;8.30;83.80;;;;;;6105333;23;20025;-80
2023/01/30 04:22:30;;;;;;;11.90;7.35;;;8.30;83.80;;;;;;6103869;23;20058;-79
2023/01/30 04:24:56;;;;;;;11.63;7.78;;;8.30;84.00;;;;;;6104126;23;20340;-81
2023/01/30 04:27:21;;;;;;;11.55;8.30;;;8.30;83.80;;;;;;6104181;23;20037;-83
2023/01/30 04:29:47;;;;;;;13.07;8.43;;;8.30;83.90;;;;;;6104876;23;20009;-79
2023/01/30 04:32:12;;;;;;;10.95;7.72;;;8.30;83.90;;;;;;6096074;23;20009;-79
2023/01/30 04:34:38;;;;;;;11.85;7.82;;;8.30;83.90;;;;;;6092081;23;20123;-77
2023/01/30 04:37:03;;;;;;;12.50;8.23;;;8.30;83.90;;;;;;6090719;23;20346;-77
2023/01/30 04:39:28;;;;;;;11.10;7.35;;;8.30;83.90;;;;;;6089824;23;20014;-77
2023/01/30 04:41:54;;;;;;;12.43;8.20;;;8.30;83.80;;;;;;6088193;23;20021;-78
2023/01/30 04:44:19;;;;;;;12.63;7.90;;;8.30;83.80;;;;;;6116873;23;20059;-78
2023/01/30 04:46:45;;;;;;;12.02;8.05;;;8.30;83.90;;;;;;6090989;23;20096;-79
2023/01/30 04:49:11;;;;;;;12.13;8.10;;;8.30;83.90;;;;;;6089859;23;20089;-78
2023/01/30 04:51:36;;;;;;;11.40;7.63;;;8.30;83.80;;;;;;6090010;23;20002;-77
2023/01/30 04:54:02;;;;;;;11.50;7.95;;;8.30;83.90;;;;;;6090675;23;20081;-78
2023/01/30 04:56:27;;;;;;;11.35;7.82;;;8.30;83.90;;;;;;6091634;23;20344;-78
2023/01/30 04:58:53;;;;;;;11.90;8.10;;;8.30;83.80;;;;;;6091537;23;20441;-78
2023/01/30 05:01:31;;;;;;;11.57;8.20;;;8.30;83.80;;;;;;6091590;23;20017;-77
2023/01/30 05:03:57;;;;;;;11.45;7.47;;;8.30;83.80;;;;;;6115727;23;20008;-76
2023/01/30 05:06:23;;;;;;;10.88;7.15;;;8.30;83.80;;;;;;6089376;23;20061;-76
2023/01/30 05:08:52;;;;;;;11.20;7.30;;;8.30;83.80;;;;;;6088027;23;20349;-76
2023/01/30 05:11:18;;;;;;;11.27;7.68;;;8.30;83.80;;;;;;6113566;23;20064;-76
2023/01/30 05:13:44;;;;;;;10.77;7.03;;;8.30;83.80;;;;;;6088292;23;20006;-75
2023/01/30 05:16:11;;;;;;;11.35;7.50;;;8.30;83.80;;;;;;6088912;23;20017;-77
2023/01/30 05:18:37;;;;;;;12.20;7.70;;;8.30;83.90;;;;;;6091041;23;20009;-80
2023/01/30 05:21:07;;;;;;;10.20;6.80;;;8.30;83.90;;;;;;6091699;23;20013;-78
2023/01/30 05:23:33;;;;;;;10.82;7.13;;;8.30;83.90;;;;;;6090694;23;20113;-75
2023/01/30 05:25:59;;;;;;;11.88;7.18;;;8.20;83.90;;;;;;6090173;23;20436;-77
2023/01/30 05:28:25;;;;;;;11.18;7.43;;;8.30;83.90;;;;;;6090748;23;20063;-77
2023/01/30 05:30:50;;;;;;;12.30;7.88;;;8.30;83.90;;;;;;6089106;23;20010;-75
2023/01/30 05:33:16;;;;;;;10.98;7.53;;;8.30;83.80;;;;;;6088264;23;20006;-78
2023/01/30 05:35:48;;;;;;;10.75;7.50;;;8.30;84.40;;;;;;6089068;23;20041;-75
2023/01/30 05:38:15;;;;;;;10.07;6.85;;;8.30;83.90;;;;;;6114466;23;20006;-75
2023/01/30 05:40:40;;;;;;;10.35;6.70;;;8.30;83.90;;;;;;6113330;23;20009;-76
2023/01/30 05:43:06;;;;;;;10.60;6.97;;;8.30;83.80;;;;;;6088928;23;20013;-75
2023/01/30 05:45:31;;;;;;;10.05;6.80;;;8.30;83.80;;;;;;6115239;23;20012;-79
2023/01/30 05:47:57;;;;;;;10.60;6.88;;;8.40;83.90;;;;;;6089530;23;20008;-76
2023/01/30 05:50:22;;;;;;;10.23;6.90;;;8.30;83.90;;;;;;6114523;23;20135;-78
2023/01/30 05:52:48;;;;;;;10.20;6.57;;;8.30;83.90;;;;;;6114944;23;20002;-78
2023/01/30 05:55:13;;;;;;;11.27;7.28;;;8.30;83.90;;;;;;6115031;23;20021;-80
2023/01/30 05:57:39;;;;;;;9.98;6.43;;;8.30;83.90;;;;;;6089627;23;20014;-77
2023/01/30 06:00:06;;;;;;;10.65;6.75;;;8.30;83.90;;;;;;6089201;23;20021;-75
2023/01/30 06:02:31;;;;;;;10.65;7.05;;;8.30;83.90;;;;;;6088788;23;20038;-75
2023/01/30 06:04:57;;;;;;;11.48;7.13;;;8.30;84.40;;;;;;6115513;23;20010;-78
2023/01/30 06:07:22;;;;;;;11.52;7.28;;;8.30;83.90;;;;;;6116622;23;20008;-77
2023/01/30 06:09:47;;;;;;;10.60;6.78;;;8.30;83.90;;;;;;6116015;23;20329;-77
2023/01/30 06:12:13;;;;;;;10.73;6.50;;;8.30;83.90;;;;;;6114940;23;20038;-77
2023/01/30 06:14:39;;;;;;;10.95;6.65;;;8.30;83.90;;;;;;6114236;23;20382;-74
2023/01/30 06:17:04;;;;;;;11.02;6.97;;;8.30;83.90;;;;;;6113259;23;20340;-76
2023/01/30 06:19:30;;;;;;;10.07;6.65;;;8.30;83.80;;;;;;6087821;23;20101;-75
2023/01/30 06:21:55;;;;;;;10.10;6.65;;;8.30;83.90;;;;;;6112890;23;20010;-76
2023/01/30 06:24:21;;;;;;;10.77;6.78;;;8.30;83.80;;;;;;6087072;23;20006;-75
2023/01/30 06:26:46;;;;;;;10.25;6.85;;;8.30;83.90;;;;;;6087483;23;20005;-77
2023/01/30 06:29:12;;;;;;;10.43;6.80;;;8.30;83.90;;;;;;6112346;23;20055;-75
2023/01/30 06:31:37;;;;;;;10.82;6.57;;;8.30;83.90;;;;;;6112348;23;20515;-75
2023/01/30 06:34:03;;;;;;;9.95;6.72;;;8.30;83.90;;;;;;6086449;23;20033;-75
2023/01/30 06:36:28;;;;;;;9.45;5.82;;;8.30;83.80;;;;;;6112953;23;20002;-74
2023/01/30 06:38:53;;;;;;;9.55;6.40;;;8.30;83.90;;;;;;6112444;23;20064;-75
2023/01/30 06:41:19;;;;;;;9.63;6.90;;;8.30;83.90;;;;;;6086345;23;20069;-75
2023/01/30 06:43:44;;;;;;;9.68;6.47;;;8.30;83.80;;;;;;6116196;23;20006;-77
2023/01/30 06:46:10;;;;;;;9.50;6.00;;;8.30;83.80;;;;;;6119630;23;20428;-78
2023/01/30 06:48:35;;;;;;;9.32;5.97;;;8.30;83.80;;;;;;6093395;23;20009;-74
2023/01/30 06:51:01;;;;;;;9.13;5.90;;;8.30;83.80;;;;;;6092144;23;20006;-75
2023/01/30 06:53:29;;;;;;;9.93;6.13;;;8.30;83.90;;;;;;6118685;23;20437;-78
2023/01/30 06:56:00;;;;;;;10.60;6.95;;;8.30;83.90;;;;;;6093280;23;20019;-75
2023/01/30 06:58:25;;;;;;;9.88;6.43;;;8.30;83.90;;;;;;6093435;23;20002;-75
2023/01/30 07:00:51;;;;;;;9.25;5.55;;;8.30;83.90;;;;;;6119406;23;20025;-75
2023/01/30 07:03:17;;;;;;;9.98;6.18;;;8.30;83.90;;;;;;6094084;23;20059;-75
2023/01/30 07:05:45;;;;;;;9.88;6.40;;;8.30;83.90;;;;;;6120256;23;20013;-77
2023/01/30 07:08:12;;;;;;;8.85;5.88;;;8.30;83.90;;;;;;6095160;23;20349;-77
2023/01/30 07:10:38;;;;;;;8.63;5.45;;;8.30;83.90;;;;;;6117987;23;20008;-78
2023/01/30 07:13:04;;;;;;;9.68;6.15;;;8.30;83.90;;;;;;6244216;23;20031;-78
2023/01/30 07:15:30;;;;;;;9.20;6.07;;;8.30;83.90;;;;;;6243597;23;20001;-78
2023/01/30 07:17:55;;;;;;;10.02;6.00;;;8.30;83.90;;;;;;6245502;22;20083;-76
2023/01/30 07:20:21;;;;;;;8.02;5.20;;;8.30;83.90;;;;;;6243866;22;20087;-77
2023/01/30 07:22:54;;;;;;;9.63;6.55;;;8.30;83.90;;;;;;6243782;23;20095;-77
2023/01/30 07:25:22;;;;;;;9.30;5.82;;;8.30;83.80;;;;;;6243720;23;20007;-78
2023/01/30 07:28:01;;;;;;;9.27;5.60;;;8.30;83.80;;;;;;6245587;22;20339;-77
2023/01/30 07:30:29;;;;;;;9.27;5.90;;;8.30;83.80;;;;;;6245124;22;20015;-77
2023/01/30 07:32:57;;;;;;;8.27;5.88;;;8.30;83.80;;;;;;6243822;23;20011;-75
2023/01/30 07:35:24;;;;;;;8.05;5.22;;;8.30;83.80;;;;;;6243880;23;20369;-78
2023/01/30 07:37:50;;;;;;;9.40;5.78;;;8.20;83.80;;;;;;6245285;22;20057;-77
2023/01/30 07:40:17;;;;;;;8.80;5.40;;;8.30;83.90;;;;;;6245983;22;20035;-77
2023/01/30 07:42:43;;;;;;;8.32;5.28;;;8.30;83.90;;;;;;6245521;22;20087;-77
2023/01/30 07:45:09;;;;;;;9.77;5.70;;;8.30;83.90;;;;;;6244893;22;20031;-75
2023/01/30 07:47:35;;;;;;;7.65;4.75;;;8.30;83.90;;;;;;6243515;23;20031;-78
2023/01/30 07:50:00;;;;;;;9.43;5.45;;;8.30;83.90;;;;;;6243630;23;20000;-77
2023/01/30 07:52:26;;;;;;;8.32;4.82;;;8.30;83.90;;;;;;6244177;22;20454;-78
2023/01/30 07:54:51;;;;;;;8.57;5.00;;;8.30;83.80;;;;;;6244011;23;20427;-78
2023/01/30 07:57:17;;;;;;;8.65;5.20;;;8.30;83.80;;;;;;6244860;22;20004;-77
2023/01/30 07:59:42;;;;;;;8.75;5.28;;;8.30;83.80;;;;;;6245145;22;20015;-78
2023/01/30 08:02:09;;;;;;;8.63;5.03;;;8.40;83.70;;;;;;6244750;22;20000;-77
2023/01/30 08:04:35;;;;;;;8.18;4.88;;;8.40;83.60;;;;;;6244338;22;20007;-77
2023/01/30 08:07:01;;;;;;;7.70;4.72;;;8.50;83.40;;;;;;6243563;23;20036;-78
2023/01/30 08:09:26;;;;;;;8.45;4.90;;;8.50;83.20;;;;;;6245612;22;20050;-78
2023/01/30 08:11:52;;;;;;;8.48;4.80;;;8.60;83.10;;;;;;6158757;22;20052;-77
2023/01/30 08:14:17;;;;;;;9.57;4.93;;;8.60;83.00;;;;;;6120462;23;20331;-78
2023/01/30 08:16:43;;;;;;;8.30;5.05;;;8.50;82.90;;;;;;6120529;23;20032;-77
2023/01/30 08:19:08;;;;;;;8.88;4.82;;;8.50;82.90;;;;;;6121164;23;20489;-77
2023/01/30 08:21:33;;;;;;;7.70;4.72;;;8.50;83.50;;;;;;6094704;23;20017;-77
2023/01/30 08:23:59;;;;;;;7.60;4.78;;;8.50;83.10;;;;;;6095085;23;20002;-77
2023/01/30 08:26:24;;;;;;;8.57;4.80;;;8.50;83.10;;;;;;6120517;23;20075;-77
2023/01/30 08:28:50;;;;;;;9.02;4.75;;;8.40;83.10;;;;;;6120775;23;20068;-78
2023/01/30 08:31:16;;;;;;;7.47;4.50;;;8.50;83.20;;;;;;6121200;23;20002;-77
2023/01/30 08:33:41;;;;;;;7.40;4.38;;;8.50;83.30;;;;;;6120800;23;20085;-78
2023/01/30 08:36:07;;;;;;;7.38;4.28;;;8.50;83.30;;;;;;6120497;23;20063;-77
2023/01/30 08:38:33;;;;;;;7.78;4.18;;;8.50;83.40;;;;;;6120525;23;20013;-77
2023/01/30 08:40:59;;;;;;;8.13;4.80;;;8.40;83.40;;;;;;6120626;23;20372;-76
2023/01/30 08:43:25;;;;;;;7.35;4.45;;;8.40;83.40;;;;;;6094974;23;20030;-77
2023/01/30 08:45:55;;;;;;;8.52;4.60;;;8.40;83.50;;;;;;6120510;23;20002;-76
2023/01/30 08:48:21;;;;;;;7.38;4.05;;;8.50;83.50;;;;;;6095069;23;20012;-77
2023/01/30 08:50:46;;;;;;;6.53;3.80;;;8.40;83.50;;;;;;6120315;23;20079;-78
2023/01/30 08:53:12;;;;;;;7.90;4.32;;;8.40;83.50;;;;;;6120731;23;19998;-77
2023/01/30 08:55:37;;;;;;;7.75;4.10;;;8.40;83.50;;;;;;6120781;23;20432;-77
2023/01/30 08:58:02;;;;;;;7.20;3.85;;;8.40;83.50;;;;;;6094976;23;20140;-78
2023/01/30 09:00:29;;;;;;;7.53;3.88;;;8.40;83.50;;;;;;6120503;23;20555;-78
2023/01/30 09:02:56;;;;;;;7.72;4.10;;;8.40;83.50;;;;;;6094848;23;20030;-77
2023/01/30 09:05:21;;;;;;;8.38;4.70;;;8.40;83.50;;;;;;6120593;23;20387;-77
2023/01/30 09:07:47;;;;;;;7.65;4.38;;;8.40;83.50;;;;;;6094608;23;20009;-77
2023/01/30 09:10:13;;;;;;;7.65;4.07;;;8.40;83.50;;;;;;6094915;23;20002;-77
2023/01/30 09:12:38;;;;;;;7.93;4.00;;;8.40;83.50;;;;;;6095065;23;20349;-78
2023/01/30 09:15:04;;;;;;;6.40;3.60;;;8.40;83.40;;;;;;6119563;23;20005;-75
2023/01/30 09:17:30;;;;;;;8.70;4.35;;;8.50;83.40;;;;;;6119961;23;20015;-77
2023/01/30 09:19:55;;;;;;;7.65;3.88;;;8.40;83.30;;;;;;6094807;23;20021;-76
2023/01/30 09:22:21;;;;;;;7.70;3.60;;;8.50;83.30;;;;;;6120241;23;20006;-77
2023/01/30 09:24:46;;;;;;;7.53;3.92;;;8.50;83.30;;;;;;6095275;23;20369;-77
2023/01/30 09:27:12;;;;;;;8.30;3.80;;;8.50;83.20;;;;;;6122610;23;20132;-77
2023/01/30 09:29:37;;;;;;;7.35;3.47;;;8.50;83.10;;;;;;6094489;23;20010;-77
2023/01/30 09:32:03;;;;;;;8.07;3.63;;;8.50;83.10;;;;;;6094247;23;19998;-77
2023/01/30 09:34:28;;;;;;;8.40;4.05;;;8.50;83.10;;;;;;6120506;23;20516;-75
2023/01/30 09:36:55;;;;;;;7.70;3.85;;;8.50;83.10;;;;;;6120075;23;19994;-76
2023/01/30 09:39:21;;;;;;;6.82;3.60;;;8.50;83.00;;;;;;6120453;23;20001;-77
2023/01/30 09:42:15;;;;;;;7.30;3.53;;;8.50;83.00;;;;;;6120183;23;19998;-77
2023/01/30 09:44:52;;;;;;;7.82;3.63;;;8.50;83.10;;;;;;6120966;23;20006;-77
2023/01/30 09:47:41;;;;;;;7.75;3.30;;;8.50;83.00;;;;;;6120631;23;20013;-78
2023/01/30 09:50:22;;;;;;;6.45;3.42;;;8.50;83.10;;;;;;6065471;23;20676;-77
2023/01/30 09:53:10;;;;;;;7.75;3.33;;;8.50;83.20;;;;;;6120494;23;20005;-77
2023/01/30 09:55:40;;;;;;;6.90;3.40;;;8.50;83.20;;;;;;6120199;23;20018;-78
2023/01/30 09:58:16;;;;;;;6.25;3.13;;;8.50;83.20;;;;;;6120043;23;20006;-77
2023/01/30 10:00:42;;;;;;;6.35;3.05;;;8.50;83.30;;;;;;6120024;23;20082;-76
2023/01/30 10:03:07;;;;;;;6.20;3.13;;;8.50;83.30;;;;;;6120408;23;20029;-77
2023/01/30 10:05:55;;;;;;;7.18;3.42;;;8.50;83.30;;;;;;6119917;23;20368;-77
2023/01/30 10:08:48;;;;;;;6.80;3.65;;;8.50;83.30;;;;;;6119975;23;20006;-76
2023/01/30 10:11:48;;;;;;;6.72;3.15;;;8.50;83.30;;;;;;6121473;23;20010;-77
2023/01/30 10:14:24;;;;;;;6.65;3.17;;;8.50;83.30;;;;;;6093668;23;20002;-77
2023/01/30 10:17:04;;;;;;;7.22;3.70;;;8.50;83.30;;;;;;6094263;23;20002;-77
2023/01/30 10:19:46;;;;;;;7.90;3.20;;;8.50;83.30;;;;;;6120195;23;20085;-78
2023/01/30 10:22:11;;;;;;;5.65;2.72;;;8.50;83.30;;;;;;6094009;23;20537;-78
2023/01/30 10:25:19;;;;;;;7.07;2.85;;;8.50;83.30;;;;;;6120159;23;20077;-77
2023/01/30 10:28:05;;;;;;;7.15;2.92;;;8.50;83.20;;;;;;6120339;23;20017;-78
2023/01/30 10:30:32;;;;;;;8.52;3.63;;;8.50;83.20;;;;;;6095002;23;20009;-78
2023/01/30 10:33:19;;;;;;;7.20;3.00;;;8.50;83.20;;;;;;6095251;23;20025;-77
2023/01/30 10:35:58;;;;;;;7.85;3.20;;;8.50;83.20;;;;;;6095077;23;19998;-77
2023/01/30 10:38:49;;;;;;;6.60;3.00;;;8.50;83.30;;;;;;6095314;23;20059;-76
2023/01/30 10:41:35;;;;;;;7.90;3.30;;;8.50;83.30;;;;;;6094901;23;20009;-77
2023/01/30 10:44:04;;;;;;;6.00;2.72;;;8.50;83.30;;;;;;6121268;23;20013;-78
2023/01/30 10:47:08;;;;;;;8.32;3.22;;;8.50;83.40;;;;;;6096846;23;20010;-77
2023/01/30 10:49:42;;;;;;;6.22;2.63;;;8.50;83.30;;;;;;6095299;23;20024;-76
2023/01/30 10:52:17;;;;;;;7.55;3.30;;;8.50;83.30;;;;;;6120920;23;20065;-77
2023/01/30 10:55:00;;;;;;;6.38;2.75;;;8.50;83.40;;;;;;6095587;23;20097;-77
2023/01/30 10:57:26;;;;;;;7.57;2.80;;;8.50;83.30;;;;;;6121188;23;20329;-77
2023/01/30 11:00:07;;;;;;;7.53;2.72;;;8.50;83.30;;;;;;6121356;23;20009;-77
2023/01/30 11:02:43;;;;;;;8.10;2.90;;;8.50;83.30;;;;;;6095126;23;20038;-76
2023/01/30 11:05:14;;;;;;;6.45;2.60;;;8.50;83.30;;;;;;6121160;23;19998;-78
2023/01/30 11:07:42;;;;;;;5.82;2.63;;;8.40;83.30;;;;;;6121202;23;20002;-76
2023/01/30 11:10:17;;;;;;;7.28;2.90;;;8.50;83.30;;;;;;6095194;23;20010;-78
2023/01/30 11:12:43;;;;;;;5.80;2.38;;;8.50;83.20;;;;;;6120975;23;20067;-77
2023/01/30 11:15:09;;;;;;;8.32;3.15;;;8.50;83.20;;;;;;6094535;23;20010;-77
2023/01/30 11:17:37;;;;;;;5.63;2.58;;;8.50;83.20;;;;;;6122450;23;19999;-77
2023/01/30 11:20:18;;;;;;;6.38;2.67;;;8.50;83.20;;;;;;6121026;23;20006;-76
2023/01/30 11:23:02;;;;;;;6.25;2.60;;;8.50;83.20;;;;;;6095065;23;20006;-76
2023/01/30 11:25:28;;;;;;;6.68;2.50;;;8.50;83.20;;;;;;6120822;23;20002;-77
2023/01/30 11:28:05;;;;;;;5.50;2.58;;;8.50;83.20;;;;;;6121014;23;20321;-78
2023/01/30 11:30:34;;;;;;;6.05;2.28;;;8.60;83.00;;;;;;6119582;23;20009;-77
2023/01/30 11:33:17;;;;;;;6.32;2.30;;;8.60;82.70;;;;;;6096492;23;20089;-77
2023/01/30 11:35:56;;;;;;;8.23;3.00;;;8.60;82.60;;;;;;6121877;23;20052;-78
2023/01/30 11:38:25;;;;;;;8.40;2.97;;;8.60;82.60;;;;;;6120793;23;20432;-76
2023/01/30 11:41:04;;;;;;;6.10;2.30;;;8.60;82.60;;;;;;6120684;23;20340;-77
2023/01/30 11:43:31;;;;;;;6.68;2.50;;;8.60;82.70;;;;;;6095409;23;20064;-77
2023/01/30 11:45:57;;;;;;;6.07;2.30;;;8.60;82.80;;;;;;6095173;23;20589;-77
2023/01/30 11:48:27;;;;;;;6.43;2.58;;;8.60;82.90;;;;;;6120844;23;20573;-77
2023/01/30 11:51:03;;;;;;;9.32;2.65;;;8.60;82.90;;;;;;6121565;23;20008;-77
2023/01/30 11:53:48;;;;;;;6.00;2.20;;;8.60;82.90;;;;;;6095250;23;20081;-78
2023/01/30 11:56:15;;;;;;;6.65;2.72;;;8.60;83.10;;;;;;6120673;23;20429;-78
2023/01/30 11:58:45;;;;;;;6.40;2.20;;;8.60;83.00;;;;;;6095213;23;20045;-78
2023/01/30 12:01:11;;;;;;;6.10;2.38;;;8.60;82.90;;;;;;6120551;23;20037;-77
2023/01/30 12:03:58;;;;;;;6.35;2.35;;;8.60;83.00;;;;;;6120594;23;20014;-77
2023/01/30 12:06:32;;;;;;;6.40;2.45;;;8.60;82.80;;;;;;6120732;23;20010;-76
2023/01/30 12:08:58;;;;;;;7.57;2.13;;;8.70;82.70;;;;;;6122219;23;20002;-77
2023/01/30 12:11:28;;;;;;;7.45;2.35;;;8.70;82.50;;;;;;6121386;23;20024;-76
2023/01/30 12:14:15;;;;;;;6.80;2.22;;;8.70;82.40;;;;;;6094315;23;20016;-78
2023/01/30 12:16:45;;;;;;;5.45;2.20;;;8.70;82.30;;;;;;6094616;23;20002;-77
2023/01/30 12:19:24;;;;;;;4.93;2.00;;;8.80;82.10;;;;;;6094722;23;20516;-76
2023/01/30 12:22:14;;;;;;;8.63;2.63;;;8.70;82.00;;;;;;6120350;23;20038;-77
2023/01/30 12:24:57;;;;;;;6.30;2.00;;;8.80;82.20;;;;;;6120475;23;20021;-78
2023/01/30 12:27:58;;;;;;;7.07;2.50;;;8.70;82.20;;;;;;6094720;23;20017;-78
2023/01/30 12:30:38;;;;;;;7.28;2.10;;;8.70;82.50;;;;;;6120527;23;20006;-76
2023/01/30 12:33:05;;;;;;;7.30;2.25;;;8.70;82.60;;;;;;6095162;23;20014;-77
2023/01/30 12:35:38;;;;;;;7.90;2.55;;;8.60;82.60;;;;;;6120249;23;20048;-76
2023/01/30 12:38:42;;;;;;;6.72;2.35;;;8.60;82.80;;;;;;6120879;23;20368;-77
2023/01/30 12:41:27;;;;;;;7.50;2.30;;;8.60;82.80;;;;;;6094595;23;20067;-77
2023/01/30 12:44:14;;;;;;;7.32;2.22;;;8.60;82.90;;;;;;6120489;23;20444;-77
2023/01/30 12:47:14;;;;;;;5.63;2.03;;;8.60;82.90;;;;;;6120456;23;20009;-77
2023/01/30 12:49:49;;;;;;;6.03;2.08;;;8.60;83.00;;;;;;6094801;23;20005;-76
2023/01/30 12:52:56;;;;;;;6.85;2.17;;;8.60;82.90;;;;;;6095577;23;20029;-77
2023/01/30 12:55:41;;;;;;;7.43;2.05;;;8.70;83.20;;;;;;6107385;23;20052;-76
2023/01/30 12:58:13;;;;;;;7.47;2.30;;;8.70;82.50;;;;;;6120788;23;20332;-77
2023/01/30 13:01:05;;;;;;;6.00;1.95;;;8.70;82.40;;;;;;6120655;23;20006;-76
2023/01/30 13:03:54;;;;;;;6.30;2.00;;;8.70;82.50;;;;;;6105350;23;20032;-77
2023/01/30 13:06:31;;;;;;;4.82;1.70;;;8.80;82.30;;;;;;6094447;23;20014;-78
2023/01/30 13:09:14;;;;;;;5.10;1.88;;;8.80;81.90;;;;;;6120623;23;20077;-77
2023/01/30 13:11:53;;;;;;;6.72;2.03;;;8.90;81.80;;;;;;6183315;23;20046;-76
2023/01/30 13:14:26;;;;;;;6.53;2.05;;;8.90;81.90;;;;;;6243858;22;19996;-77
2023/01/30 13:17:21;;;;;;;5.85;2.00;;;8.80;81.90;;;;;;6242589;23;20011;-77